Sheho, Canada
Current Conditions -  °F | °C
As of 12:00 PM on Monday 26 Jan 2015 (Local Time) from CYQV Reporting Station
Clear Clear  
Wind Chill: 26°   Ceiling: Unl
Heat Index: 32°   Visibility: 9mi
Dew Point: 27°   Wind: 7mph
Humidity: 80%   Direction: 270°W
Pressure: 29.88"   Gusts: NA
Location:  51.58°N, 103.22°W
Report Text: CYQV 261800Z AUTO 27006KT 9SM CLR 00/M03 A2988 RMK SLP142
Loading
Personal Weather Stations






























Interactive Weather Map New forecast layout! Learn more

10-Day Weather Forecast

Advertisements
Track Severe Weather on mobile